sensor_id;sensor_type;location;lat;lon;timestamp;P1;durP1;ratioP1;P2;durP2;ratioP2
17441;SDS011;8838;50.144;8.176;2023-09-12T00:01:06;14.25;;;6.00;;
17441;SDS011;8838;50.144;8.176;2023-09-12T00:03:33;17.25;;;6.10;;
17441;SDS011;8838;50.144;8.176;2023-09-12T00:06:01;17.00;;;6.28;;
17441;SDS011;8838;50.144;8.176;2023-09-12T00:08:28;16.27;;;6.28;;
17441;SDS011;8838;50.144;8.176;2023-09-12T00:10:59;13.98;;;5.90;;
17441;SDS011;8838;50.144;8.176;2023-09-12T00:13:31;13.27;;;6.07;;
17441;SDS011;8838;50.144;8.176;2023-09-12T00:15:58;15.25;;;6.10;;
17441;SDS011;8838;50.144;8.176;2023-09-12T00:18:25;16.55;;;6.07;;
17441;SDS011;8838;50.144;8.176;2023-09-12T00:20:52;17.98;;;6.30;;
17441;SDS011;8838;50.144;8.176;2023-09-12T00:23:20;15.60;;;6.20;;
17441;SDS011;8838;50.144;8.176;2023-09-12T00:25:48;16.40;;;6.13;;
17441;SDS011;8838;50.144;8.176;2023-09-12T00:28:16;16.02;;;6.40;;
17441;SDS011;8838;50.144;8.176;2023-09-12T00:30:44;11.60;;;6.03;;
17441;SDS011;8838;50.144;8.176;2023-09-12T00:33:11;21.48;;;6.63;;
17441;SDS011;8838;50.144;8.176;2023-09-12T00:35:38;15.65;;;5.70;;
17441;SDS011;8838;50.144;8.176;2023-09-12T00:38:05;17.42;;;5.80;;
17441;SDS011;8838;50.144;8.176;2023-09-12T00:40:32;14.25;;;5.85;;
17441;SDS011;8838;50.144;8.176;2023-09-12T00:42:59;16.45;;;5.70;;
17441;SDS011;8838;50.144;8.176;2023-09-12T00:45:26;17.65;;;6.57;;
17441;SDS011;8838;50.144;8.176;2023-09-12T00:47:54;21.20;;;6.20;;
17441;SDS011;8838;50.144;8.176;2023-09-12T00:50:24;13.57;;;5.72;;
17441;SDS011;8838;50.144;8.176;2023-09-12T00:52:51;16.35;;;5.75;;
17441;SDS011;8838;50.144;8.176;2023-09-12T00:55:19;13.45;;;5.53;;
17441;SDS011;8838;50.144;8.176;2023-09-12T00:57:46;13.38;;;6.00;;
17441;SDS011;8838;50.144;8.176;2023-09-12T01:00:14;18.42;;;6.72;;
17441;SDS011;8838;50.144;8.176;2023-09-12T01:02:42;11.88;;;6.32;;
17441;SDS011;8838;50.144;8.176;2023-09-12T01:05:12;13.82;;;6.03;;
17441;SDS011;8838;50.144;8.176;2023-09-12T01:07:41;13.45;;;5.75;;
17441;SDS011;8838;50.144;8.176;2023-09-12T01:10:09;13.23;;;5.97;;
17441;SDS011;8838;50.144;8.176;2023-09-12T01:12:36;17.50;;;6.60;;
17441;SDS011;8838;50.144;8.176;2023-09-12T01:15:03;12.60;;;5.93;;
17441;SDS011;8838;50.144;8.176;2023-09-12T01:17:33;19.85;;;6.57;;
17441;SDS011;8838;50.144;8.176;2023-09-12T01:20:00;18.23;;;6.47;;
17441;SDS011;8838;50.144;8.176;2023-09-12T01:22:40;22.40;;;7.07;;
17441;SDS011;8838;50.144;8.176;2023-09-12T01:25:33;14.68;;;6.57;;
17441;SDS011;8838;50.144;8.176;2023-09-12T01:28:09;15.85;;;6.63;;
17441;SDS011;8838;50.144;8.176;2023-09-12T01:30:39;19.17;;;6.70;;
17441;SDS011;8838;50.144;8.176;2023-09-12T01:33:08;10.85;;;6.50;;
17441;SDS011;8838;50.144;8.176;2023-09-12T01:35:35;15.40;;;6.60;;
17441;SDS011;8838;50.144;8.176;2023-09-12T01:38:02;15.48;;;6.57;;
17441;SDS011;8838;50.144;8.176;2023-09-12T01:40:31;18.20;;;7.07;;
17441;SDS011;8838;50.144;8.176;2023-09-12T01:43:03;21.20;;;7.43;;
17441;SDS011;8838;50.144;8.176;2023-09-12T01:45:33;14.25;;;6.90;;
17441;SDS011;8838;50.144;8.176;2023-09-12T01:48:02;16.10;;;6.85;;
17441;SDS011;8838;50.144;8.176;2023-09-12T01:50:30;17.05;;;6.43;;
17441;SDS011;8838;50.144;8.176;2023-09-12T01:52:57;15.75;;;6.40;;
17441;SDS011;8838;50.144;8.176;2023-09-12T01:55:25;15.82;;;7.05;;
17441;SDS011;8838;50.144;8.176;2023-09-12T01:57:53;14.60;;;6.05;;
17441;SDS011;8838;50.144;8.176;2023-09-12T02:00:21;11.85;;;6.13;;
17441;SDS011;8838;50.144;8.176;2023-09-12T02:02:50;15.13;;;5.90;;
17441;SDS011;8838;50.144;8.176;2023-09-12T02:05:17;17.60;;;5.70;;
17441;SDS011;8838;50.144;8.176;2023-09-12T02:07:46;20.00;;;6.05;;
17441;SDS011;8838;50.144;8.176;2023-09-12T02:10:13;15.98;;;5.97;;
17441;SDS011;8838;50.144;8.176;2023-09-12T02:12:41;14.27;;;6.30;;
17441;SDS011;8838;50.144;8.176;2023-09-12T02:15:08;16.50;;;6.65;;
17441;SDS011;8838;50.144;8.176;2023-09-12T02:17:35;16.13;;;6.30;;
17441;SDS011;8838;50.144;8.176;2023-09-12T02:20:06;18.08;;;6.47;;
17441;SDS011;8838;50.144;8.176;2023-09-12T02:22:33;15.48;;;6.43;;
17441;SDS011;8838;50.144;8.176;2023-09-12T02:25:00;16.77;;;6.28;;
17441;SDS011;8838;50.144;8.176;2023-09-12T02:27:27;18.95;;;6.75;;
17441;SDS011;8838;50.144;8.176;2023-09-12T02:29:54;14.95;;;6.35;;
17441;SDS011;8838;50.144;8.176;2023-09-12T02:32:21;15.63;;;6.35;;
17441;SDS011;8838;50.144;8.176;2023-09-12T02:34:48;14.68;;;6.55;;
17441;SDS011;8838;50.144;8.176;2023-09-12T02:37:16;11.02;;;6.18;;
17441;SDS011;8838;50.144;8.176;2023-09-12T02:39:43;15.18;;;7.05;;
17441;SDS011;8838;50.144;8.176;2023-09-12T02:42:09;14.63;;;6.32;;
17441;SDS011;8838;50.144;8.176;2023-09-12T02:44:36;14.52;;;6.35;;
17441;SDS011;8838;50.144;8.176;2023-09-12T02:47:03;10.98;;;6.47;;
17441;SDS011;8838;50.144;8.176;2023-09-12T02:49:31;17.65;;;5.93;;
17441;SDS011;8838;50.144;8.176;2023-09-12T02:51:57;14.73;;;6.47;;
17441;SDS011;8838;50.144;8.176;2023-09-12T02:54:25;13.70;;;5.80;;
17441;SDS011;8838;50.144;8.176;2023-09-12T02:56:52;16.95;;;6.18;;
17441;SDS011;8838;50.144;8.176;2023-09-12T02:59:19;10.13;;;5.38;;
17441;SDS011;8838;50.144;8.176;2023-09-12T03:01:46;14.02;;;5.82;;
17441;SDS011;8838;50.144;8.176;2023-09-12T03:04:12;19.35;;;6.65;;
17441;SDS011;8838;50.144;8.176;2023-09-12T03:06:39;16.80;;;5.95;;
17441;SDS011;8838;50.144;8.176;2023-09-12T03:09:06;15.10;;;6.85;;
17441;SDS011;8838;50.144;8.176;2023-09-12T03:11:34;15.38;;;6.28;;
17441;SDS011;8838;50.144;8.176;2023-09-12T03:14:01;16.08;;;6.13;;
17441;SDS011;8838;50.144;8.176;2023-09-12T03:16:28;21.92;;;6.93;;
17441;SDS011;8838;50.144;8.176;2023-09-12T03:18:55;17.70;;;6.57;;
17441;SDS011;8838;50.144;8.176;2023-09-12T03:21:21;16.52;;;6.05;;
17441;SDS011;8838;50.144;8.176;2023-09-12T03:23:48;24.42;;;6.68;;
17441;SDS011;8838;50.144;8.176;2023-09-12T03:26:15;20.13;;;6.75;;
17441;SDS011;8838;50.144;8.176;2023-09-12T03:28:43;20.42;;;6.05;;
17441;SDS011;8838;50.144;8.176;2023-09-12T03:31:10;15.60;;;6.80;;
17441;SDS011;8838;50.144;8.176;2023-09-12T03:33:38;14.23;;;6.50;;
17441;SDS011;8838;50.144;8.176;2023-09-12T03:36:06;17.40;;;7.00;;
17441;SDS011;8838;50.144;8.176;2023-09-12T03:38:33;14.27;;;6.35;;
17441;SDS011;8838;50.144;8.176;2023-09-12T03:41:00;12.43;;;5.78;;
17441;SDS011;8838;50.144;8.176;2023-09-12T03:43:27;11.95;;;6.15;;
17441;SDS011;8838;50.144;8.176;2023-09-12T03:45:55;15.80;;;6.68;;
17441;SDS011;8838;50.144;8.176;2023-09-12T03:48:22;18.27;;;6.60;;
17441;SDS011;8838;50.144;8.176;2023-09-12T03:50:49;17.23;;;6.80;;
17441;SDS011;8838;50.144;8.176;2023-09-12T03:53:16;17.52;;;6.30;;
17441;SDS011;8838;50.144;8.176;2023-09-12T03:55:43;16.05;;;6.65;;
17441;SDS011;8838;50.144;8.176;2023-09-12T03:58:09;13.52;;;6.18;;
17441;SDS011;8838;50.144;8.176;2023-09-12T04:00:36;12.77;;;6.45;;
17441;SDS011;8838;50.144;8.176;2023-09-12T04:03:04;15.27;;;6.88;;
17441;SDS011;8838;50.144;8.176;2023-09-12T04:05:31;13.70;;;6.53;;
17441;SDS011;8838;50.144;8.176;2023-09-12T04:07:58;20.05;;;6.70;;
17441;SDS011;8838;50.144;8.176;2023-09-12T04:10:25;13.02;;;6.25;;
17441;SDS011;8838;50.144;8.176;2023-09-12T04:12:51;16.30;;;6.45;;
17441;SDS011;8838;50.144;8.176;2023-09-12T04:15:18;14.18;;;6.38;;
17441;SDS011;8838;50.144;8.176;2023-09-12T04:17:45;13.68;;;7.10;;
17441;SDS011;8838;50.144;8.176;2023-09-12T04:20:13;17.98;;;6.20;;
17441;SDS011;8838;50.144;8.176;2023-09-12T04:22:40;15.25;;;6.60;;
17441;SDS011;8838;50.144;8.176;2023-09-12T04:25:08;13.55;;;6.15;;
17441;SDS011;8838;50.144;8.176;2023-09-12T04:27:35;12.02;;;6.60;;
17441;SDS011;8838;50.144;8.176;2023-09-12T04:30:01;13.63;;;5.97;;
17441;SDS011;8838;50.144;8.176;2023-09-12T04:32:29;18.40;;;6.20;;
17441;SDS011;8838;50.144;8.176;2023-09-12T04:34:55;11.88;;;6.10;;
17441;SDS011;8838;50.144;8.176;2023-09-12T04:37:24;20.17;;;7.07;;
17441;SDS011;8838;50.144;8.176;2023-09-12T04:39:50;17.17;;;6.75;;
17441;SDS011;8838;50.144;8.176;2023-09-12T04:42:17;14.95;;;6.70;;
17441;SDS011;8838;50.144;8.176;2023-09-12T04:44:44;16.20;;;6.60;;
17441;SDS011;8838;50.144;8.176;2023-09-12T04:47:11;17.83;;;6.40;;
17441;SDS011;8838;50.144;8.176;2023-09-12T04:49:38;16.10;;;6.47;;
17441;SDS011;8838;50.144;8.176;2023-09-12T04:52:05;15.15;;;6.65;;
17441;SDS011;8838;50.144;8.176;2023-09-12T04:54:33;16.05;;;6.78;;
17441;SDS011;8838;50.144;8.176;2023-09-12T04:57:01;19.00;;;7.05;;
17441;SDS011;8838;50.144;8.176;2023-09-12T04:59:27;13.95;;;6.40;;
17441;SDS011;8838;50.144;8.176;2023-09-12T05:01:54;12.68;;;6.65;;
17441;SDS011;8838;50.144;8.176;2023-09-12T05:04:21;16.58;;;7.13;;
17441;SDS011;8838;50.144;8.176;2023-09-12T05:06:48;11.57;;;6.53;;
17441;SDS011;8838;50.144;8.176;2023-09-12T05:09:14;16.52;;;6.63;;
17441;SDS011;8838;50.144;8.176;2023-09-12T05:11:42;10.50;;;5.88;;
17441;SDS011;8838;50.144;8.176;2023-09-12T05:14:10;11.70;;;6.35;;
17441;SDS011;8838;50.144;8.176;2023-09-12T05:16:37;14.07;;;6.63;;
17441;SDS011;8838;50.144;8.176;2023-09-12T05:19:04;14.52;;;6.65;;
17441;SDS011;8838;50.144;8.176;2023-09-12T05:21:31;16.70;;;6.80;;
17441;SDS011;8838;50.144;8.176;2023-09-12T05:23:58;13.95;;;6.68;;
17441;SDS011;8838;50.144;8.176;2023-09-12T05:26:25;14.82;;;6.50;;
17441;SDS011;8838;50.144;8.176;2023-09-12T05:28:53;14.93;;;6.97;;
17441;SDS011;8838;50.144;8.176;2023-09-12T05:31:20;14.55;;;6.78;;
17441;SDS011;8838;50.144;8.176;2023-09-12T05:33:46;15.25;;;6.18;;
17441;SDS011;8838;50.144;8.176;2023-09-12T05:36:14;17.50;;;6.78;;
17441;SDS011;8838;50.144;8.176;2023-09-12T05:38:40;17.02;;;6.57;;
17441;SDS011;8838;50.144;8.176;2023-09-12T05:41:07;13.32;;;6.50;;
17441;SDS011;8838;50.144;8.176;2023-09-12T05:43:34;11.57;;;6.72;;
17441;SDS011;8838;50.144;8.176;2023-09-12T05:46:03;17.73;;;7.25;;
17441;SDS011;8838;50.144;8.176;2023-09-12T05:48:29;20.77;;;7.53;;
17441;SDS011;8838;50.144;8.176;2023-09-12T05:50:56;17.85;;;7.72;;
17441;SDS011;8838;50.144;8.176;2023-09-12T05:53:23;18.33;;;7.78;;
17441;SDS011;8838;50.144;8.176;2023-09-12T05:55:50;18.17;;;7.75;;
17441;SDS011;8838;50.144;8.176;2023-09-12T05:58:17;18.00;;;7.80;;
17441;SDS011;8838;50.144;8.176;2023-09-12T06:00:43;17.50;;;6.90;;
17441;SDS011;8838;50.144;8.176;2023-09-12T06:03:14;15.63;;;6.95;;
17441;SDS011;8838;50.144;8.176;2023-09-12T06:05:42;16.38;;;6.78;;
17441;SDS011;8838;50.144;8.176;2023-09-12T06:08:08;15.52;;;6.75;;
17441;SDS011;8838;50.144;8.176;2023-09-12T06:10:35;15.82;;;6.13;;
17441;SDS011;8838;50.144;8.176;2023-09-12T06:13:02;14.02;;;6.35;;
17441;SDS011;8838;50.144;8.176;2023-09-12T06:15:29;15.38;;;6.50;;
17441;SDS011;8838;50.144;8.176;2023-09-12T06:17:56;14.75;;;6.28;;
17441;SDS011;8838;50.144;8.176;2023-09-12T06:20:24;14.18;;;6.25;;
17441;SDS011;8838;50.144;8.176;2023-09-12T06:22:51;13.50;;;6.20;;
17441;SDS011;8838;50.144;8.176;2023-09-12T06:25:18;14.77;;;5.75;;
17441;SDS011;8838;50.144;8.176;2023-09-12T06:27:45;13.23;;;6.32;;
17441;SDS011;8838;50.144;8.176;2023-09-12T06:30:12;10.27;;;5.55;;
17441;SDS011;8838;50.144;8.176;2023-09-12T06:32:39;16.15;;;6.00;;
17441;SDS011;8838;50.144;8.176;2023-09-12T06:35:06;18.60;;;6.38;;
17441;SDS011;8838;50.144;8.176;2023-09-12T06:37:37;14.15;;;6.45;;
17441;SDS011;8838;50.144;8.176;2023-09-12T06:40:03;13.88;;;6.00;;
17441;SDS011;8838;50.144;8.176;2023-09-12T06:42:30;14.93;;;6.13;;
17441;SDS011;8838;50.144;8.176;2023-09-12T06:44:57;14.43;;;5.70;;
17441;SDS011;8838;50.144;8.176;2023-09-12T06:47:24;16.35;;;6.72;;
17441;SDS011;8838;50.144;8.176;2023-09-12T06:49:51;14.18;;;6.38;;
17441;SDS011;8838;50.144;8.176;2023-09-12T06:52:18;14.32;;;6.40;;
17441;SDS011;8838;50.144;8.176;2023-09-12T06:54:46;16.60;;;6.57;;
17441;SDS011;8838;50.144;8.176;2023-09-12T06:57:12;15.70;;;6.65;;
17441;SDS011;8838;50.144;8.176;2023-09-12T06:59:39;19.38;;;6.82;;
17441;SDS011;8838;50.144;8.176;2023-09-12T07:02:07;17.83;;;6.45;;
17441;SDS011;8838;50.144;8.176;2023-09-12T07:04:35;15.25;;;6.60;;
17441;SDS011;8838;50.144;8.176;2023-09-12T07:07:04;20.23;;;6.15;;
17441;SDS011;8838;50.144;8.176;2023-09-12T07:09:31;17.38;;;6.78;;
17441;SDS011;8838;50.144;8.176;2023-09-12T07:12:00;17.80;;;6.63;;
17441;SDS011;8838;50.144;8.176;2023-09-12T07:14:26;17.42;;;6.20;;
17441;SDS011;8838;50.144;8.176;2023-09-12T07:16:54;16.92;;;6.40;;
17441;SDS011;8838;50.144;8.176;2023-09-12T07:19:21;15.52;;;6.32;;
17441;SDS011;8838;50.144;8.176;2023-09-12T07:21:48;13.38;;;6.03;;
17441;SDS011;8838;50.144;8.176;2023-09-12T07:24:15;14.10;;;6.38;;
17441;SDS011;8838;50.144;8.176;2023-09-12T07:26:41;15.93;;;6.60;;
17441;SDS011;8838;50.144;8.176;2023-09-12T07:29:10;13.90;;;6.45;;
17441;SDS011;8838;50.144;8.176;2023-09-12T07:31:38;17.52;;;6.80;;
17441;SDS011;8838;50.144;8.176;2023-09-12T07:34:07;17.20;;;6.72;;
17441;SDS011;8838;50.144;8.176;2023-09-12T07:36:34;20.30;;;6.15;;
17441;SDS011;8838;50.144;8.176;2023-09-12T07:39:01;14.45;;;6.22;;
17441;SDS011;8838;50.144;8.176;2023-09-12T07:41:29;15.52;;;6.15;;
17441;SDS011;8838;50.144;8.176;2023-09-12T07:43:55;15.85;;;6.82;;
17441;SDS011;8838;50.144;8.176;2023-09-12T07:46:24;19.38;;;6.10;;
17441;SDS011;8838;50.144;8.176;2023-09-12T07:48:50;18.85;;;5.80;;
17441;SDS011;8838;50.144;8.176;2023-09-12T07:51:17;14.95;;;6.00;;
17441;SDS011;8838;50.144;8.176;2023-09-12T07:53:44;16.50;;;5.60;;
17441;SDS011;8838;50.144;8.176;2023-09-12T07:56:11;15.38;;;5.47;;
17441;SDS011;8838;50.144;8.176;2023-09-12T07:58:38;13.63;;;4.95;;
17441;SDS011;8838;50.144;8.176;2023-09-12T08:01:05;17.30;;;5.90;;
17441;SDS011;8838;50.144;8.176;2023-09-12T08:03:34;16.70;;;5.18;;
17441;SDS011;8838;50.144;8.176;2023-09-12T08:06:01;13.60;;;5.60;;
17441;SDS011;8838;50.144;8.176;2023-09-12T08:08:28;17.17;;;6.60;;
17441;SDS011;8838;50.144;8.176;2023-09-12T08:10:55;15.90;;;5.80;;
17441;SDS011;8838;50.144;8.176;2023-09-12T08:13:22;14.00;;;4.85;;
17441;SDS011;8838;50.144;8.176;2023-09-12T08:15:51;15.57;;;5.00;;
17441;SDS011;8838;50.144;8.176;2023-09-12T08:18:18;13.70;;;5.20;;
17441;SDS011;8838;50.144;8.176;2023-09-12T08:20:46;11.95;;;4.90;;
17441;SDS011;8838;50.144;8.176;2023-09-12T08:23:13;15.73;;;5.40;;
17441;SDS011;8838;50.144;8.176;2023-09-12T08:25:40;16.02;;;5.45;;
17441;SDS011;8838;50.144;8.176;2023-09-12T08:28:06;15.00;;;5.10;;
17441;SDS011;8838;50.144;8.176;2023-09-12T08:30:33;14.50;;;4.97;;
17441;SDS011;8838;50.144;8.176;2023-09-12T08:33:01;13.35;;;5.10;;
17441;SDS011;8838;50.144;8.176;2023-09-12T08:35:29;20.15;;;5.30;;
17441;SDS011;8838;50.144;8.176;2023-09-12T08:37:57;12.52;;;5.57;;
17441;SDS011;8838;50.144;8.176;2023-09-12T08:40:38;12.38;;;4.80;;
17441;SDS011;8838;50.144;8.176;2023-09-12T08:43:05;12.35;;;5.07;;
17441;SDS011;8838;50.144;8.176;2023-09-12T08:45:34;17.60;;;5.32;;
17441;SDS011;8838;50.144;8.176;2023-09-12T08:48:01;15.48;;;5.15;;
17441;SDS011;8838;50.144;8.176;2023-09-12T08:50:31;13.73;;;5.47;;
17441;SDS011;8838;50.144;8.176;2023-09-12T08:53:00;14.98;;;5.13;;
17441;SDS011;8838;50.144;8.176;2023-09-12T08:55:28;12.75;;;5.55;;
17441;SDS011;8838;50.144;8.176;2023-09-12T08:57:55;13.35;;;5.22;;
17441;SDS011;8838;50.144;8.176;2023-09-12T09:00:23;16.58;;;5.32;;
17441;SDS011;8838;50.144;8.176;2023-09-12T09:02:51;15.30;;;5.40;;
17441;SDS011;8838;50.144;8.176;2023-09-12T09:05:20;13.43;;;5.47;;
17441;SDS011;8838;50.144;8.176;2023-09-12T09:07:48;17.20;;;5.40;;
17441;SDS011;8838;50.144;8.176;2023-09-12T09:10:17;12.65;;;5.50;;
17441;SDS011;8838;50.144;8.176;2023-09-12T09:12:46;13.77;;;5.03;;
17441;SDS011;8838;50.144;8.176;2023-09-12T09:15:25;20.33;;;5.57;;
17441;SDS011;8838;50.144;8.176;2023-09-12T09:17:53;18.52;;;5.75;;
17441;SDS011;8838;50.144;8.176;2023-09-12T09:20:22;17.23;;;6.05;;
17441;SDS011;8838;50.144;8.176;2023-09-12T09:22:57;18.13;;;5.47;;
17441;SDS011;8838;50.144;8.176;2023-09-12T09:25:27;17.02;;;5.63;;
17441;SDS011;8838;50.144;8.176;2023-09-12T09:27:54;17.15;;;6.53;;
17441;SDS011;8838;50.144;8.176;2023-09-12T09:30:40;14.88;;;5.78;;
17441;SDS011;8838;50.144;8.176;2023-09-12T09:33:07;21.50;;;6.65;;
17441;SDS011;8838;50.144;8.176;2023-09-12T09:35:38;18.88;;;5.70;;
17441;SDS011;8838;50.144;8.176;2023-09-12T09:38:07;19.38;;;6.50;;
17441;SDS011;8838;50.144;8.176;2023-09-12T09:40:36;12.88;;;5.82;;
17441;SDS011;8838;50.144;8.176;2023-09-12T09:43:03;20.50;;;5.90;;
17441;SDS011;8838;50.144;8.176;2023-09-12T09:45:30;19.88;;;6.43;;
17441;SDS011;8838;50.144;8.176;2023-09-12T09:47:58;22.27;;;6.93;;
17441;SDS011;8838;50.144;8.176;2023-09-12T09:50:32;21.85;;;12.35;;
17441;SDS011;8838;50.144;8.176;2023-09-12T09:53:00;21.25;;;7.53;;
17441;SDS011;8838;50.144;8.176;2023-09-12T09:55:29;14.60;;;6.28;;
17441;SDS011;8838;50.144;8.176;2023-09-12T09:57:58;19.88;;;6.68;;
17441;SDS011;8838;50.144;8.176;2023-09-12T10:00:25;22.50;;;6.93;;
17441;SDS011;8838;50.144;8.176;2023-09-12T10:02:54;18.42;;;6.75;;
17441;SDS011;8838;50.144;8.176;2023-09-12T10:05:22;19.95;;;7.03;;
17441;SDS011;8838;50.144;8.176;2023-09-12T10:07:49;17.77;;;7.10;;
17441;SDS011;8838;50.144;8.176;2023-09-12T10:10:17;20.33;;;6.70;;
17441;SDS011;8838;50.144;8.176;2023-09-12T10:12:49;15.82;;;6.47;;
17441;SDS011;8838;50.144;8.176;2023-09-12T10:15:21;24.33;;;7.15;;
17441;SDS011;8838;50.144;8.176;2023-09-12T10:17:51;16.08;;;6.40;;
17441;SDS011;8838;50.144;8.176;2023-09-12T10:20:24;19.73;;;7.32;;
17441;SDS011;8838;50.144;8.176;2023-09-12T10:22:56;19.70;;;6.38;;
17441;SDS011;8838;50.144;8.176;2023-09-12T10:25:32;11.93;;;6.65;;
17441;SDS011;8838;50.144;8.176;2023-09-12T10:28:01;19.60;;;6.25;;
17441;SDS011;8838;50.144;8.176;2023-09-12T10:30:31;13.88;;;6.38;;
17441;SDS011;8838;50.144;8.176;2023-09-12T10:32:59;17.83;;;6.45;;
17441;SDS011;8838;50.144;8.176;2023-09-12T10:35:27;22.33;;;6.63;;
17441;SDS011;8838;50.144;8.176;2023-09-12T10:37:56;17.60;;;5.85;;
17441;SDS011;8838;50.144;8.176;2023-09-12T10:40:29;15.55;;;5.70;;
17441;SDS011;8838;50.144;8.176;2023-09-12T10:42:57;13.80;;;6.35;;
17441;SDS011;8838;50.144;8.176;2023-09-12T10:45:25;18.65;;;6.38;;
17441;SDS011;8838;50.144;8.176;2023-09-12T10:47:55;15.02;;;6.45;;
17441;SDS011;8838;50.144;8.176;2023-09-12T10:50:22;15.93;;;6.05;;
17441;SDS011;8838;50.144;8.176;2023-09-12T10:52:49;16.23;;;6.80;;
17441;SDS011;8838;50.144;8.176;2023-09-12T10:55:16;16.90;;;6.53;;
17441;SDS011;8838;50.144;8.176;2023-09-12T10:58:00;20.90;;;6.35;;
17441;SDS011;8838;50.144;8.176;2023-09-12T11:00:27;16.38;;;6.78;;
17441;SDS011;8838;50.144;8.176;2023-09-12T11:02:59;18.05;;;6.57;;
17441;SDS011;8838;50.144;8.176;2023-09-12T11:05:34;14.05;;;6.43;;
17441;SDS011;8838;50.144;8.176;2023-09-12T11:08:02;20.42;;;6.95;;
17441;SDS011;8838;50.144;8.176;2023-09-12T11:10:30;17.20;;;6.72;;
17441;SDS011;8838;50.144;8.176;2023-09-12T11:12:57;11.18;;;5.82;;
17441;SDS011;8838;50.144;8.176;2023-09-12T11:15:27;17.85;;;6.90;;
17441;SDS011;8838;50.144;8.176;2023-09-12T11:18:01;20.92;;;6.72;;
17441;SDS011;8838;50.144;8.176;2023-09-12T11:20:48;17.15;;;6.45;;
17441;SDS011;8838;50.144;8.176;2023-09-12T11:23:18;19.52;;;6.97;;
17441;SDS011;8838;50.144;8.176;2023-09-12T11:25:45;14.40;;;6.47;;
17441;SDS011;8838;50.144;8.176;2023-09-12T11:28:12;16.85;;;6.15;;
17441;SDS011;8838;50.144;8.176;2023-09-12T11:30:39;16.30;;;6.97;;
17441;SDS011;8838;50.144;8.176;2023-09-12T11:33:23;19.77;;;6.65;;
17441;SDS011;8838;50.144;8.176;2023-09-12T11:35:51;17.35;;;6.82;;
17441;SDS011;8838;50.144;8.176;2023-09-12T11:38:25;16.40;;;6.55;;
17441;SDS011;8838;50.144;8.176;2023-09-12T11:40:53;15.35;;;6.25;;
17441;SDS011;8838;50.144;8.176;2023-09-12T11:43:20;19.35;;;6.28;;
17441;SDS011;8838;50.144;8.176;2023-09-12T11:45:49;22.02;;;6.55;;
17441;SDS011;8838;50.144;8.176;2023-09-12T11:48:17;19.75;;;6.72;;
17441;SDS011;8838;50.144;8.176;2023-09-12T11:50:50;13.43;;;6.43;;
17441;SDS011;8838;50.144;8.176;2023-09-12T11:53:20;19.58;;;6.55;;
17441;SDS011;8838;50.144;8.176;2023-09-12T11:55:51;18.55;;;6.50;;
17441;SDS011;8838;50.144;8.176;2023-09-12T11:58:20;13.13;;;6.07;;
17441;SDS011;8838;50.144;8.176;2023-09-12T12:00:47;14.70;;;6.88;;
17441;SDS011;8838;50.144;8.176;2023-09-12T12:03:16;13.98;;;6.20;;
17441;SDS011;8838;50.144;8.176;2023-09-12T12:05:44;20.00;;;6.53;;
17441;SDS011;8838;50.144;8.176;2023-09-12T12:08:13;16.33;;;7.32;;
17441;SDS011;8838;50.144;8.176;2023-09-12T12:10:42;14.32;;;7.50;;
17441;SDS011;8838;50.144;8.176;2023-09-12T12:13:11;16.42;;;7.00;;
17441;SDS011;8838;50.144;8.176;2023-09-12T12:15:38;16.50;;;6.70;;
17441;SDS011;8838;50.144;8.176;2023-09-12T12:18:05;17.00;;;6.93;;
17441;SDS011;8838;50.144;8.176;2023-09-12T12:20:32;15.70;;;6.43;;
17441;SDS011;8838;50.144;8.176;2023-09-12T12:22:59;13.80;;;6.97;;
17441;SDS011;8838;50.144;8.176;2023-09-12T12:25:28;15.70;;;7.10;;
17441;SDS011;8838;50.144;8.176;2023-09-12T12:27:58;15.35;;;6.97;;
17441;SDS011;8838;50.144;8.176;2023-09-12T12:30:25;18.08;;;6.63;;
17441;SDS011;8838;50.144;8.176;2023-09-12T12:32:55;16.85;;;6.75;;
17441;SDS011;8838;50.144;8.176;2023-09-12T12:35:23;19.15;;;6.78;;
17441;SDS011;8838;50.144;8.176;2023-09-12T12:37:53;18.70;;;6.78;;
17441;SDS011;8838;50.144;8.176;2023-09-12T12:40:21;20.50;;;6.97;;
17441;SDS011;8838;50.144;8.176;2023-09-12T12:42:50;16.60;;;6.68;;
17441;SDS011;8838;50.144;8.176;2023-09-12T12:45:18;19.35;;;7.22;;
17441;SDS011;8838;50.144;8.176;2023-09-12T12:47:46;15.18;;;7.10;;
17441;SDS011;8838;50.144;8.176;2023-09-12T12:50:17;19.90;;;7.75;;
17441;SDS011;8838;50.144;8.176;2023-09-12T12:52:46;18.15;;;6.75;;
17441;SDS011;8838;50.144;8.176;2023-09-12T12:55:14;12.93;;;6.22;;
17441;SDS011;8838;50.144;8.176;2023-09-12T12:57:43;13.00;;;6.82;;
17441;SDS011;8838;50.144;8.176;2023-09-12T13:00:12;17.92;;;6.43;;
17441;SDS011;8838;50.144;8.176;2023-09-12T13:02:41;13.40;;;6.15;;
17441;SDS011;8838;50.144;8.176;2023-09-12T13:05:19;12.68;;;6.53;;
17441;SDS011;8838;50.144;8.176;2023-09-12T13:07:46;17.23;;;7.63;;
17441;SDS011;8838;50.144;8.176;2023-09-12T13:10:13;14.10;;;6.55;;
17441;SDS011;8838;50.144;8.176;2023-09-12T13:12:40;13.40;;;6.40;;
17441;SDS011;8838;50.144;8.176;2023-09-12T13:15:11;11.52;;;6.75;;
17441;SDS011;8838;50.144;8.176;2023-09-12T13:17:38;20.08;;;6.68;;
17441;SDS011;8838;50.144;8.176;2023-09-12T13:20:06;17.38;;;6.95;;
17441;SDS011;8838;50.144;8.176;2023-09-12T13:22:34;14.27;;;6.30;;
17441;SDS011;8838;50.144;8.176;2023-09-12T13:25:01;11.85;;;6.22;;
17441;SDS011;8838;50.144;8.176;2023-09-12T13:27:28;14.65;;;6.07;;
17441;SDS011;8838;50.144;8.176;2023-09-12T13:29:55;13.50;;;6.57;;
17441;SDS011;8838;50.144;8.176;2023-09-12T13:32:23;15.50;;;6.40;;
17441;SDS011;8838;50.144;8.176;2023-09-12T13:34:50;13.13;;;6.43;;
17441;SDS011;8838;50.144;8.176;2023-09-12T13:37:17;13.50;;;6.53;;
17441;SDS011;8838;50.144;8.176;2023-09-12T13:39:44;12.23;;;7.05;;
17441;SDS011;8838;50.144;8.176;2023-09-12T13:42:13;15.80;;;6.47;;
17441;SDS011;8838;50.144;8.176;2023-09-12T13:44:43;16.63;;;6.55;;
17441;SDS011;8838;50.144;8.176;2023-09-12T13:47:10;14.80;;;7.00;;
17441;SDS011;8838;50.144;8.176;2023-09-12T13:49:39;18.25;;;7.07;;
17441;SDS011;8838;50.144;8.176;2023-09-12T13:52:06;14.75;;;7.20;;
17441;SDS011;8838;50.144;8.176;2023-09-12T13:54:33;17.85;;;7.63;;
17441;SDS011;8838;50.144;8.176;2023-09-12T13:57:00;17.83;;;7.43;;
17441;SDS011;8838;50.144;8.176;2023-09-12T13:59:29;18.75;;;8.32;;
17441;SDS011;8838;50.144;8.176;2023-09-12T14:01:56;16.38;;;7.60;;
17441;SDS011;8838;50.144;8.176;2023-09-12T14:04:23;15.68;;;7.15;;
17441;SDS011;8838;50.144;8.176;2023-09-12T14:06:51;14.40;;;7.25;;
17441;SDS011;8838;50.144;8.176;2023-09-12T14:09:18;13.88;;;7.10;;
17441;SDS011;8838;50.144;8.176;2023-09-12T14:11:45;15.25;;;7.05;;
17441;SDS011;8838;50.144;8.176;2023-09-12T14:14:12;20.05;;;7.82;;
17441;SDS011;8838;50.144;8.176;2023-09-12T14:16:39;13.52;;;7.82;;
17441;SDS011;8838;50.144;8.176;2023-09-12T14:19:06;13.27;;;7.32;;
17441;SDS011;8838;50.144;8.176;2023-09-12T14:21:33;11.55;;;6.82;;
17441;SDS011;8838;50.144;8.176;2023-09-12T14:24:01;12.70;;;7.00;;
17441;SDS011;8838;50.144;8.176;2023-09-12T14:26:28;11.30;;;7.20;;
17441;SDS011;8838;50.144;8.176;2023-09-12T14:28:54;13.05;;;6.90;;
17441;SDS011;8838;50.144;8.176;2023-09-12T14:31:21;14.38;;;8.10;;
17441;SDS011;8838;50.144;8.176;2023-09-12T14:33:49;13.75;;;7.53;;
17441;SDS011;8838;50.144;8.176;2023-09-12T14:36:17;18.50;;;7.30;;
17441;SDS011;8838;50.144;8.176;2023-09-12T14:38:44;13.52;;;7.40;;
17441;SDS011;8838;50.144;8.176;2023-09-12T14:41:13;12.15;;;7.65;;
17441;SDS011;8838;50.144;8.176;2023-09-12T14:43:40;13.70;;;7.93;;
17441;SDS011;8838;50.144;8.176;2023-09-12T14:46:06;12.98;;;7.65;;
17441;SDS011;8838;50.144;8.176;2023-09-12T14:48:34;12.95;;;7.65;;
17441;SDS011;8838;50.144;8.176;2023-09-12T14:51:01;15.40;;;8.38;;
17441;SDS011;8838;50.144;8.176;2023-09-12T14:53:28;11.27;;;8.02;;